sensor_id;sensor_type;location;lat;lon;timestamp;pressure;altitude;pressure_sealevel;temperature;humidity
64402;BME280;50724;42.376;23.768;2023-06-22T00:02:08;93576.00;;;19.60;73.33
64402;BME280;50724;42.376;23.768;2023-06-22T00:05:09;93584.59;;;19.69;72.54
64402;BME280;50724;42.376;23.768;2023-06-22T00:08:09;93588.69;;;19.58;73.05
64402;BME280;50724;42.376;23.768;2023-06-22T00:11:10;93589.50;;;19.59;75.73
64402;BME280;50724;42.376;23.768;2023-06-22T00:14:11;93597.94;;;19.10;77.50
64402;BME280;50724;42.376;23.768;2023-06-22T00:17:11;93598.94;;;18.63;80.14
64402;BME280;50724;42.376;23.768;2023-06-22T00:20:11;93596.16;;;18.17;82.33
64402;BME280;50724;42.376;23.768;2023-06-22T00:23:12;93598.53;;;17.93;83.45
64402;BME280;50724;42.376;23.768;2023-06-22T00:26:23;93604.53;;;17.67;84.53
64402;BME280;50724;42.376;23.768;2023-06-22T00:29:24;93605.03;;;17.90;83.72
64402;BME280;50724;42.376;23.768;2023-06-22T00:32:25;93607.56;;;17.36;85.69
64402;BME280;50724;42.376;23.768;2023-06-22T00:35:26;93599.75;;;17.22;87.54
64402;BME280;50724;42.376;23.768;2023-06-22T00:38:30;93599.47;;;17.10;87.93
64402;BME280;50724;42.376;23.768;2023-06-22T00:41:30;93599.84;;;16.79;91.12
64402;BME280;50724;42.376;23.768;2023-06-22T00:44:30;93603.44;;;16.72;92.21
64402;BME280;50724;42.376;23.768;2023-06-22T00:47:31;93596.28;;;16.66;92.35
64402;BME280;50724;42.376;23.768;2023-06-22T00:50:33;93597.78;;;16.75;91.43
64402;BME280;50724;42.376;23.768;2023-06-22T00:53:34;93598.59;;;16.75;91.13
64402;BME280;50724;42.376;23.768;2023-06-22T00:56:35;93606.16;;;16.78;91.15
64402;BME280;50724;42.376;23.768;2023-06-22T00:59:37;93601.28;;;16.82;91.74
64402;BME280;50724;42.376;23.768;2023-06-22T01:02:39;93599.75;;;16.94;90.55
64402;BME280;50724;42.376;23.768;2023-06-22T01:05:40;93594.03;;;16.90;90.58
64402;BME280;50724;42.376;23.768;2023-06-22T01:08:46;93589.84;;;16.75;91.71
64402;BME280;50724;42.376;23.768;2023-06-22T01:11:54;93585.78;;;16.51;93.48
64402;BME280;50724;42.376;23.768;2023-06-22T01:15:05;93596.03;;;16.61;93.66
64402;BME280;50724;42.376;23.768;2023-06-22T01:18:08;93592.84;;;16.50;94.29
64402;BME280;50724;42.376;23.768;2023-06-22T01:21:12;93598.38;;;16.34;94.90
64402;BME280;50724;42.376;23.768;2023-06-22T01:24:27;93594.00;;;16.63;93.04
64402;BME280;50724;42.376;23.768;2023-06-22T01:30:43;93589.88;;;16.54;92.79
64402;BME280;50724;42.376;23.768;2023-06-22T01:33:50;93585.78;;;16.51;93.47
64402;BME280;50724;42.376;23.768;2023-06-22T01:36:51;93585.63;;;16.53;93.78
64402;BME280;50724;42.376;23.768;2023-06-22T01:39:54;93590.59;;;16.47;94.22
64402;BME280;50724;42.376;23.768;2023-06-22T01:42:55;93591.56;;;16.40;94.72
64402;BME280;50724;42.376;23.768;2023-06-22T01:45:57;93584.81;;;16.37;95.26
64402;BME280;50724;42.376;23.768;2023-06-22T01:48:58;93581.50;;;16.29;95.49
64402;BME280;50724;42.376;23.768;2023-06-22T01:51:59;93579.22;;;16.26;95.82
64402;BME280;50724;42.376;23.768;2023-06-22T01:55:00;93587.91;;;16.20;96.95
64402;BME280;50724;42.376;23.768;2023-06-22T01:58:00;93586.69;;;16.01;97.75
64402;BME280;50724;42.376;23.768;2023-06-22T02:01:10;93585.88;;;16.01;98.06
64402;BME280;50724;42.376;23.768;2023-06-22T02:04:24;93593.97;;;15.99;97.33
64402;BME280;50724;42.376;23.768;2023-06-22T02:07:42;93590.59;;;16.05;96.80
64402;BME280;50724;42.376;23.768;2023-06-22T02:10:46;93601.22;;;16.12;96.40
64402;BME280;50724;42.376;23.768;2023-06-22T02:13:49;93586.88;;;16.00;96.84
64402;BME280;50724;42.376;23.768;2023-06-22T02:16:51;93601.19;;;15.91;97.08
64402;BME280;50724;42.376;23.768;2023-06-22T02:19:51;93602.31;;;15.67;100.00
64402;BME280;50724;42.376;23.768;2023-06-22T02:22:52;93598.13;;;15.72;100.00
64402;BME280;50724;42.376;23.768;2023-06-22T02:25:53;93610.56;;;15.78;99.16
64402;BME280;50724;42.376;23.768;2023-06-22T02:28:53;93611.75;;;15.76;99.81
64402;BME280;50724;42.376;23.768;2023-06-22T02:31:54;93615.56;;;15.73;99.06
64402;BME280;50724;42.376;23.768;2023-06-22T02:34:55;93602.66;;;15.78;99.41
64402;BME280;50724;42.376;23.768;2023-06-22T02:37:55;93610.75;;;15.77;99.50
64402;BME280;50724;42.376;23.768;2023-06-22T02:40:56;93606.53;;;15.97;98.70
64402;BME280;50724;42.376;23.768;2023-06-22T02:43:56;93604.19;;;15.88;98.69
64402;BME280;50724;42.376;23.768;2023-06-22T02:46:57;93605.91;;;15.80;99.41
64402;BME280;50724;42.376;23.768;2023-06-22T02:49:58;93600.81;;;15.94;99.23
64402;BME280;50724;42.376;23.768;2023-06-22T02:52:58;93587.38;;;15.89;99.59
64402;BME280;50724;42.376;23.768;2023-06-22T02:55:59;93596.09;;;15.89;100.00
64402;BME280;50724;42.376;23.768;2023-06-22T02:59:02;93596.16;;;15.96;100.00
64402;BME280;50724;42.376;23.768;2023-06-22T03:02:03;93600.63;;;15.95;100.00
64402;BME280;50724;42.376;23.768;2023-06-22T03:05:04;93593.41;;;16.04;99.82
64402;BME280;50724;42.376;23.768;2023-06-22T03:08:06;93591.47;;;16.12;99.52
64402;BME280;50724;42.376;23.768;2023-06-22T03:11:07;93593.56;;;16.17;99.82
64402;BME280;50724;42.376;23.768;2023-06-22T03:14:07;93596.72;;;16.27;98.50
64402;BME280;50724;42.376;23.768;2023-06-22T03:17:09;93595.63;;;16.42;97.12
64402;BME280;50724;42.376;23.768;2023-06-22T03:20:11;93600.47;;;16.39;97.74
64402;BME280;50724;42.376;23.768;2023-06-22T03:23:12;93606.00;;;16.44;98.04
64402;BME280;50724;42.376;23.768;2023-06-22T03:26:12;93603.13;;;16.60;97.53
64402;BME280;50724;42.376;23.768;2023-06-22T03:29:13;93614.00;;;16.72;96.67
64402;BME280;50724;42.376;23.768;2023-06-22T03:32:14;93616.53;;;16.80;96.20
64402;BME280;50724;42.376;23.768;2023-06-22T03:35:14;93628.06;;;16.79;95.46
64402;BME280;50724;42.376;23.768;2023-06-22T03:38:14;93630.06;;;16.70;95.93
64402;BME280;50724;42.376;23.768;2023-06-22T03:41:15;93622.31;;;16.90;95.60
64402;BME280;50724;42.376;23.768;2023-06-22T03:44:16;93620.06;;;17.21;95.90
64402;BME280;50724;42.376;23.768;2023-06-22T03:47:17;93616.28;;;17.30;95.86
64402;BME280;50724;42.376;23.768;2023-06-22T03:50:17;93628.44;;;17.52;93.79
64402;BME280;50724;42.376;23.768;2023-06-22T03:53:20;93628.16;;;17.75;93.11
64402;BME280;50724;42.376;23.768;2023-06-22T03:56:20;93630.31;;;17.99;92.59
64402;BME280;50724;42.376;23.768;2023-06-22T03:59:21;93624.66;;;18.15;91.40
64402;BME280;50724;42.376;23.768;2023-06-22T04:02:21;93619.03;;;18.38;91.23
64402;BME280;50724;42.376;23.768;2023-06-22T04:05:21;93626.91;;;18.18;90.51
64402;BME280;50724;42.376;23.768;2023-06-22T04:08:22;93632.78;;;18.61;89.70
64402;BME280;50724;42.376;23.768;2023-06-22T04:11:22;93631.25;;;18.32;89.46
64402;BME280;50724;42.376;23.768;2023-06-22T04:14:23;93635.44;;;18.87;87.08
64402;BME280;50724;42.376;23.768;2023-06-22T04:17:23;93650.13;;;21.33;76.68
64402;BME280;50724;42.376;23.768;2023-06-22T04:20:25;93635.94;;;24.81;62.78
64402;BME280;50724;42.376;23.768;2023-06-22T04:23:26;93646.91;;;27.37;51.35
64402;BME280;50724;42.376;23.768;2023-06-22T04:26:26;93646.63;;;29.11;46.00
64402;BME280;50724;42.376;23.768;2023-06-22T04:29:26;93658.97;;;30.83;40.74
64402;BME280;50724;42.376;23.768;2023-06-22T04:32:28;93661.06;;;31.94;39.09
64402;BME280;50724;42.376;23.768;2023-06-22T04:35:38;93659.34;;;32.66;37.71
64402;BME280;50724;42.376;23.768;2023-06-22T04:38:47;93656.84;;;32.69;36.03
64402;BME280;50724;42.376;23.768;2023-06-22T04:41:48;93658.56;;;32.31;38.11
64402;BME280;50724;42.376;23.768;2023-06-22T04:44:48;93654.91;;;32.75;37.96
64402;BME280;50724;42.376;23.768;2023-06-22T04:47:49;93655.69;;;32.99;35.99
64402;BME280;50724;42.376;23.768;2023-06-22T04:50:49;93661.31;;;29.85;41.12
64402;BME280;50724;42.376;23.768;2023-06-22T04:53:50;93647.03;;;29.80;41.47
64402;BME280;50724;42.376;23.768;2023-06-22T04:56:50;93648.19;;;28.92;44.24
64402;BME280;50724;42.376;23.768;2023-06-22T04:59:56;93647.31;;;29.78;41.13
64402;BME280;50724;42.376;23.768;2023-06-22T05:02:57;93642.69;;;30.09;41.09
64402;BME280;50724;42.376;23.768;2023-06-22T05:05:58;93642.69;;;30.24;41.07
64402;BME280;50724;42.376;23.768;2023-06-22T05:08:58;93652.44;;;28.78;44.42
64402;BME280;50724;42.376;23.768;2023-06-22T05:11:59;93646.50;;;27.23;50.29
64402;BME280;50724;42.376;23.768;2023-06-22T05:15:02;93642.66;;;26.49;54.22
64402;BME280;50724;42.376;23.768;2023-06-22T05:18:02;93644.53;;;25.56;59.62
64402;BME280;50724;42.376;23.768;2023-06-22T05:21:05;93642.03;;;24.65;63.16
64402;BME280;50724;42.376;23.768;2023-06-22T05:24:06;93648.53;;;24.40;65.01
64402;BME280;50724;42.376;23.768;2023-06-22T05:27:06;93646.00;;;24.11;67.88
64402;BME280;50724;42.376;23.768;2023-06-22T05:30:07;93648.91;;;23.86;66.42
64402;BME280;50724;42.376;23.768;2023-06-22T05:33:08;93650.19;;;23.72;68.41
64402;BME280;50724;42.376;23.768;2023-06-22T05:36:09;93644.63;;;24.08;68.44
64402;BME280;50724;42.376;23.768;2023-06-22T05:39:14;93658.53;;;24.73;64.89
64402;BME280;50724;42.376;23.768;2023-06-22T05:42:15;93650.59;;;24.90;64.76
64402;BME280;50724;42.376;23.768;2023-06-22T05:45:15;93650.53;;;25.01;65.17
64402;BME280;50724;42.376;23.768;2023-06-22T05:48:16;93651.28;;;25.13;64.37
64402;BME280;50724;42.376;23.768;2023-06-22T05:51:16;93659.88;;;24.99;64.53
64402;BME280;50724;42.376;23.768;2023-06-22T05:54:17;93654.19;;;25.57;61.22
64402;BME280;50724;42.376;23.768;2023-06-22T05:57:18;93653.38;;;25.56;61.99
64402;BME280;50724;42.376;23.768;2023-06-22T06:00:18;93650.34;;;25.86;62.29
64402;BME280;50724;42.376;23.768;2023-06-22T06:03:19;93645.97;;;25.80;61.95
64402;BME280;50724;42.376;23.768;2023-06-22T06:06:19;93649.28;;;26.04;62.01
64402;BME280;50724;42.376;23.768;2023-06-22T06:09:28;93657.41;;;26.47;59.79
64402;BME280;50724;42.376;23.768;2023-06-22T06:12:29;93650.81;;;26.33;60.70
64402;BME280;50724;42.376;23.768;2023-06-22T06:15:30;93645.03;;;26.24;61.53
64402;BME280;50724;42.376;23.768;2023-06-22T06:18:31;93649.94;;;26.49;61.47
64402;BME280;50724;42.376;23.768;2023-06-22T06:21:31;93661.53;;;26.54;61.17
64402;BME280;50724;42.376;23.768;2023-06-22T06:24:32;93656.56;;;26.68;59.84
64402;BME280;50724;42.376;23.768;2023-06-22T06:27:32;93655.75;;;26.84;52.59
64402;BME280;50724;42.376;23.768;2023-06-22T06:30:32;93657.63;;;26.07;50.38
64402;BME280;50724;42.376;23.768;2023-06-22T06:33:33;93650.31;;;26.19;51.75
64402;BME280;50724;42.376;23.768;2023-06-22T06:36:33;93658.97;;;26.05;50.36
64402;BME280;50724;42.376;23.768;2023-06-22T06:39:34;93656.16;;;26.33;48.95
64402;BME280;50724;42.376;23.768;2023-06-22T06:42:34;93662.47;;;26.43;47.97
64402;BME280;50724;42.376;23.768;2023-06-22T06:45:34;93657.41;;;26.25;49.88
64402;BME280;50724;42.376;23.768;2023-06-22T06:48:35;93665.94;;;26.22;48.21
64402;BME280;50724;42.376;23.768;2023-06-22T06:51:35;93653.75;;;25.98;46.30
64402;BME280;50724;42.376;23.768;2023-06-22T06:54:36;93651.56;;;25.95;47.34
64402;BME280;50724;42.376;23.768;2023-06-22T06:57:36;93661.03;;;25.64;47.14
64402;BME280;50724;42.376;23.768;2023-06-22T07:00:37;93663.69;;;25.81;49.16
64402;BME280;50724;42.376;23.768;2023-06-22T07:03:38;93657.88;;;26.06;47.18
64402;BME280;50724;42.376;23.768;2023-06-22T07:06:38;93665.56;;;26.14;48.45
64402;BME280;50724;42.376;23.768;2023-06-22T07:09:39;93656.84;;;26.45;47.24
64402;BME280;50724;42.376;23.768;2023-06-22T07:12:39;93661.47;;;26.71;46.61
64402;BME280;50724;42.376;23.768;2023-06-22T07:15:40;93660.44;;;26.94;46.71
64402;BME280;50724;42.376;23.768;2023-06-22T07:18:40;93659.91;;;26.97;44.61
64402;BME280;50724;42.376;23.768;2023-06-22T07:21:41;93659.09;;;26.96;42.98
64402;BME280;50724;42.376;23.768;2023-06-22T07:24:41;93658.03;;;26.97;41.88
64402;BME280;50724;42.376;23.768;2023-06-22T07:28:01;93654.72;;;26.90;43.56
64402;BME280;50724;42.376;23.768;2023-06-22T07:31:11;93660.03;;;27.34;43.23
64402;BME280;50724;42.376;23.768;2023-06-22T07:34:11;93664.66;;;27.38;41.20
64402;BME280;50724;42.376;23.768;2023-06-22T07:37:12;93656.81;;;27.37;39.67
64402;BME280;50724;42.376;23.768;2023-06-22T07:40:13;93660.22;;;27.27;41.98
64402;BME280;50724;42.376;23.768;2023-06-22T07:43:13;93655.66;;;27.27;43.42
64402;BME280;50724;42.376;23.768;2023-06-22T07:46:13;93658.41;;;27.64;43.96
64402;BME280;50724;42.376;23.768;2023-06-22T07:49:14;93649.41;;;27.22;43.73
64402;BME280;50724;42.376;23.768;2023-06-22T07:52:14;93658.03;;;27.51;40.96
64402;BME280;50724;42.376;23.768;2023-06-22T07:55:15;93650.22;;;27.81;40.82
64402;BME280;50724;42.376;23.768;2023-06-22T07:58:15;93654.81;;;27.85;39.38
64402;BME280;50724;42.376;23.768;2023-06-22T08:01:19;93653.44;;;28.15;39.47
64402;BME280;50724;42.376;23.768;2023-06-22T08:04:21;93644.94;;;28.33;39.96
64402;BME280;50724;42.376;23.768;2023-06-22T08:07:21;93637.59;;;28.70;40.21
64402;BME280;50724;42.376;23.768;2023-06-22T08:10:21;93653.38;;;29.13;40.83
64402;BME280;50724;42.376;23.768;2023-06-22T08:13:22;93648.72;;;28.84;41.16
64402;BME280;50724;42.376;23.768;2023-06-22T08:16:22;93650.13;;;28.49;41.82
64402;BME280;50724;42.376;23.768;2023-06-22T08:19:23;93649.16;;;28.66;40.47
64402;BME280;50724;42.376;23.768;2023-06-22T08:22:23;93648.69;;;28.79;40.42
64402;BME280;50724;42.376;23.768;2023-06-22T08:25:24;93649.22;;;28.76;41.40
64402;BME280;50724;42.376;23.768;2023-06-22T08:28:24;93650.59;;;28.83;43.10
64402;BME280;50724;42.376;23.768;2023-06-22T08:31:25;93638.38;;;27.77;43.54
64402;BME280;50724;42.376;23.768;2023-06-22T08:34:25;93639.69;;;27.16;47.04
64402;BME280;50724;42.376;23.768;2023-06-22T08:37:28;93635.94;;;26.90;49.28
64402;BME280;50724;42.376;23.768;2023-06-22T08:40:31;93637.66;;;27.55;45.81
64402;BME280;50724;42.376;23.768;2023-06-22T08:43:31;93638.63;;;27.17;48.83
64402;BME280;50724;42.376;23.768;2023-06-22T08:46:32;93642.66;;;27.73;45.96
64402;BME280;50724;42.376;23.768;2023-06-22T08:49:33;93636.69;;;28.03;44.72
64402;BME280;50724;42.376;23.768;2023-06-22T08:52:34;93632.47;;;28.64;44.61
64402;BME280;50724;42.376;23.768;2023-06-22T08:55:34;93642.66;;;28.10;41.93
64402;BME280;50724;42.376;23.768;2023-06-22T08:58:35;93636.19;;;27.74;41.75
64402;BME280;50724;42.376;23.768;2023-06-22T09:01:35;93642.31;;;28.43;39.87
64402;BME280;50724;42.376;23.768;2023-06-22T09:04:36;93628.59;;;28.49;39.89
64402;BME280;50724;42.376;23.768;2023-06-22T09:07:36;93630.25;;;28.50;39.38
64402;BME280;50724;42.376;23.768;2023-06-22T09:10:37;93628.97;;;28.16;44.52
64402;BME280;50724;42.376;23.768;2023-06-22T09:13:37;93620.00;;;28.01;46.52
64402;BME280;50724;42.376;23.768;2023-06-22T09:16:38;93628.75;;;27.86;41.01
64402;BME280;50724;42.376;23.768;2023-06-22T09:19:47;93628.47;;;28.19;40.28
64402;BME280;50724;42.376;23.768;2023-06-22T09:22:48;93631.19;;;27.87;40.56
64402;BME280;50724;42.376;23.768;2023-06-22T09:25:49;93623.19;;;27.02;42.95
64402;BME280;50724;42.376;23.768;2023-06-22T09:28:49;93630.38;;;27.23;40.06
64402;BME280;50724;42.376;23.768;2023-06-22T09:31:50;93641.94;;;27.24;41.96
64402;BME280;50724;42.376;23.768;2023-06-22T09:34:50;93637.72;;;27.65;43.04
64402;BME280;50724;42.376;23.768;2023-06-22T09:37:51;93641.25;;;27.65;39.57
64402;BME280;50724;42.376;23.768;2023-06-22T09:40:51;93651.63;;;28.20;42.78
64402;BME280;50724;42.376;23.768;2023-06-22T09:43:52;93647.88;;;27.89;45.75
64402;BME280;50724;42.376;23.768;2023-06-22T09:46:53;93638.88;;;27.69;43.22
64402;BME280;50724;42.376;23.768;2023-06-22T09:49:53;93639.69;;;28.11;45.95
64402;BME280;50724;42.376;23.768;2023-06-22T09:52:55;93640.09;;;27.29;44.55
64402;BME280;50724;42.376;23.768;2023-06-22T09:55:56;93629.94;;;27.63;47.46
64402;BME280;50724;42.376;23.768;2023-06-22T09:58:57;93636.41;;;28.04;41.72
64402;BME280;50724;42.376;23.768;2023-06-22T10:02:06;93633.56;;;28.73;39.47
64402;BME280;50724;42.376;23.768;2023-06-22T10:05:07;93633.28;;;28.64;40.65
64402;BME280;50724;42.376;23.768;2023-06-22T10:08:08;93633.94;;;28.96;38.02
64402;BME280;50724;42.376;23.768;2023-06-22T10:11:10;93634.69;;;28.77;38.20
64402;BME280;50724;42.376;23.768;2023-06-22T10:14:10;93628.41;;;28.61;37.91
64402;BME280;50724;42.376;23.768;2023-06-22T10:17:10;93629.28;;;28.82;38.29
64402;BME280;50724;42.376;23.768;2023-06-22T10:20:11;93631.88;;;29.69;38.20
64402;BME280;50724;42.376;23.768;2023-06-22T10:23:12;93624.91;;;28.60;38.12
64402;BME280;50724;42.376;23.768;2023-06-22T10:26:12;93625.88;;;29.06;38.49
64402;BME280;50724;42.376;23.768;2023-06-22T10:29:13;93622.78;;;28.68;38.10
64402;BME280;50724;42.376;23.768;2023-06-22T10:32:13;93615.91;;;28.40;38.01
64402;BME280;50724;42.376;23.768;2023-06-22T10:35:14;93617.81;;;28.44;35.97
64402;BME280;50724;42.376;23.768;2023-06-22T10:38:16;93618.84;;;29.05;36.67
64402;BME280;50724;42.376;23.768;2023-06-22T10:41:16;93612.47;;;29.42;37.60
64402;BME280;50724;42.376;23.768;2023-06-22T10:44:17;93613.81;;;29.29;36.52
64402;BME280;50724;42.376;23.768;2023-06-22T10:47:17;93614.09;;;29.48;39.60
64402;BME280;50724;42.376;23.768;2023-06-22T10:50:18;93618.69;;;28.55;35.82
64402;BME280;50724;42.376;23.768;2023-06-22T10:53:20;93609.88;;;28.75;37.53
64402;BME280;50724;42.376;23.768;2023-06-22T10:56:23;93603.03;;;29.59;38.13
64402;BME280;50724;42.376;23.768;2023-06-22T10:59:23;93604.66;;;29.60;38.47
64402;BME280;50724;42.376;23.768;2023-06-22T11:02:24;93606.56;;;29.80;39.19
64402;BME280;50724;42.376;23.768;2023-06-22T11:05:25;93604.59;;;30.31;36.06
64402;BME280;50724;42.376;23.768;2023-06-22T11:08:25;93601.47;;;30.78;36.05
64402;BME280;50724;42.376;23.768;2023-06-22T11:11:25;93606.28;;;29.66;35.75
64402;BME280;50724;42.376;23.768;2023-06-22T11:14:26;93610.84;;;29.41;36.75
64402;BME280;50724;42.376;23.768;2023-06-22T11:17:26;93600.75;;;28.81;34.98
64402;BME280;50724;42.376;23.768;2023-06-22T11:20:27;93602.97;;;29.09;37.79
64402;BME280;50724;42.376;23.768;2023-06-22T11:23:27;93610.06;;;29.30;38.87
64402;BME280;50724;42.376;23.768;2023-06-22T11:26:28;93604.13;;;29.78;35.48
64402;BME280;50724;42.376;23.768;2023-06-22T11:29:28;93603.59;;;29.56;37.01
64402;BME280;50724;42.376;23.768;2023-06-22T11:32:29;93602.25;;;29.54;36.35
64402;BME280;50724;42.376;23.768;2023-06-22T11:35:30;93597.38;;;29.41;38.47
64402;BME280;50724;42.376;23.768;2023-06-22T11:38:30;93599.53;;;29.49;37.55
64402;BME280;50724;42.376;23.768;2023-06-22T11:41:31;93582.47;;;30.24;36.86
64402;BME280;50724;42.376;23.768;2023-06-22T11:44:31;93589.34;;;30.70;34.75
64402;BME280;50724;42.376;23.768;2023-06-22T11:47:31;93587.66;;;31.33;35.63
64402;BME280;50724;42.376;23.768;2023-06-22T11:50:32;93594.56;;;31.54;33.24
64402;BME280;50724;42.376;23.768;2023-06-22T11:53:36;93587.31;;;30.37;35.41
64402;BME280;50724;42.376;23.768;2023-06-22T11:56:36;93589.81;;;29.73;37.26
64402;BME280;50724;42.376;23.768;2023-06-22T11:59:36;93595.09;;;30.48;37.95
64402;BME280;50724;42.376;23.768;2023-06-22T12:02:37;93590.16;;;30.71;36.95
64402;BME280;50724;42.376;23.768;2023-06-22T12:05:38;93593.25;;;30.34;37.41
64402;BME280;50724;42.376;23.768;2023-06-22T12:08:38;93578.66;;;30.30;33.11
64402;BME280;50724;42.376;23.768;2023-06-22T12:11:39;93576.34;;;29.63;32.55
64402;BME280;50724;42.376;23.768;2023-06-22T12:14:39;93571.41;;;30.15;35.96
64402;BME280;50724;42.376;23.768;2023-06-22T12:17:40;93578.50;;;29.81;38.57
64402;BME280;50724;42.376;23.768;2023-06-22T12:20:41;93571.41;;;30.15;35.20
64402;BME280;50724;42.376;23.768;2023-06-22T12:23:41;93571.72;;;30.09;34.58
64402;BME280;50724;42.376;23.768;2023-06-22T12:26:41;93568.25;;;29.93;35.34
64402;BME280;50724;42.376;23.768;2023-06-22T12:29:42;93567.72;;;29.36;36.09
64402;BME280;50724;42.376;23.768;2023-06-22T12:32:43;93567.44;;;29.67;36.70
64402;BME280;50724;42.376;23.768;2023-06-22T12:35:44;93566.38;;;29.78;35.67
64402;BME280;50724;42.376;23.768;2023-06-22T12:38:45;93566.13;;;29.45;35.52
64402;BME280;50724;42.376;23.768;2023-06-22T12:41:45;93563.81;;;28.66;37.81
64402;BME280;50724;42.376;23.768;2023-06-22T12:44:46;93565.09;;;27.55;42.11
64402;BME280;50724;42.376;23.768;2023-06-22T12:47:46;93564.25;;;26.91;42.63
64402;BME280;50724;42.376;23.768;2023-06-22T12:50:47;93556.25;;;27.27;42.48
64402;BME280;50724;42.376;23.768;2023-06-22T12:53:48;93557.78;;;27.18;43.82
64402;BME280;50724;42.376;23.768;2023-06-22T12:56:50;93548.38;;;27.16;44.18
64402;BME280;50724;42.376;23.768;2023-06-22T12:59:50;93554.09;;;27.29;43.37
64402;BME280;50724;42.376;23.768;2023-06-22T13:02:51;93552.88;;;27.37;42.54
64402;BME280;50724;42.376;23.768;2023-06-22T13:05:51;93556.19;;;27.49;44.01
64402;BME280;50724;42.376;23.768;2023-06-22T13:08:52;93561.63;;;27.27;44.49
64402;BME280;50724;42.376;23.768;2023-06-22T13:11:52;93568.31;;;27.25;45.69
64402;BME280;50724;42.376;23.768;2023-06-22T13:14:53;93565.94;;;27.60;47.13
64402;BME280;50724;42.376;23.768;2023-06-22T13:17:53;93561.88;;;27.58;46.49
64402;BME280;50724;42.376;23.768;2023-06-22T13:20:54;93569.72;;;27.64;43.52
64402;BME280;50724;42.376;23.768;2023-06-22T13:23:54;93570.94;;;27.20;44.32
64402;BME280;50724;42.376;23.768;2023-06-22T13:26:55;93565.66;;;27.30;43.01
64402;BME280;50724;42.376;23.768;2023-06-22T13:29:55;93575.34;;;27.63;45.18
64402;BME280;50724;42.376;23.768;2023-06-22T13:32:56;93576.59;;;27.50;45.37
64402;BME280;50724;42.376;23.768;2023-06-22T13:35:56;93578.41;;;27.08;48.89
64402;BME280;50724;42.376;23.768;2023-06-22T13:38:57;93580.03;;;26.60;49.45
64402;BME280;50724;42.376;23.768;2023-06-22T13:41:58;93574.13;;;26.37;51.62
64402;BME280;50724;42.376;23.768;2023-06-22T13:44:58;93579.72;;;26.35;51.16
64402;BME280;50724;42.376;23.768;2023-06-22T13:47:58;93571.13;;;26.12;52.41
64402;BME280;50724;42.376;23.768;2023-06-22T13:50:59;93581.69;;;26.02;51.85
64402;BME280;50724;42.376;23.768;2023-06-22T13:53:59;93587.34;;;26.05;51.86
64402;BME280;50724;42.376;23.768;2023-06-22T13:57:00;93577.25;;;25.90;51.63
64402;BME280;50724;42.376;23.768;2023-06-22T14:00:00;93571.66;;;25.75;53.36
64402;BME280;50724;42.376;23.768;2023-06-22T14:03:00;93583.06;;;25.66;53.77
64402;BME280;50724;42.376;23.768;2023-06-22T14:06:01;93576.00;;;25.60;55.45
64402;BME280;50724;42.376;23.768;2023-06-22T14:09:01;93576.84;;;25.44;54.83
64402;BME280;50724;42.376;23.768;2023-06-22T14:12:06;93566.56;;;25.41;55.68
64402;BME280;50724;42.376;23.768;2023-06-22T14:15:06;93575.44;;;25.41;55.67
64402;BME280;50724;42.376;23.768;2023-06-22T14:18:07;93564.72;;;25.41;55.83
64402;BME280;50724;42.376;23.768;2023-06-22T14:21:07;93564.56;;;25.31;56.45
64402;BME280;50724;42.376;23.768;2023-06-22T14:24:08;93563.50;;;25.49;58.09
64402;BME280;50724;42.376;23.768;2023-06-22T14:27:08;93564.47;;;25.59;58.62
64402;BME280;50724;42.376;23.768;2023-06-22T14:30:09;93556.03;;;25.17;60.20
64402;BME280;50724;42.376;23.768;2023-06-22T14:33:11;93564.13;;;24.61;60.48
64402;BME280;50724;42.376;23.768;2023-06-22T14:36:12;93566.03;;;24.21;61.32
64402;BME280;50724;42.376;23.768;2023-06-22T14:39:13;93561.34;;;23.76;63.01
64402;BME280;50724;42.376;23.768;2023-06-22T14:42:13;93561.81;;;23.62;63.06
64402;BME280;50724;42.376;23.768;2023-06-22T14:45:14;93563.78;;;23.66;63.01
64402;BME280;50724;42.376;23.768;2023-06-22T14:48:14;93565.03;;;23.29;63.90
64402;BME280;50724;42.376;23.768;2023-06-22T14:51:15;93569.56;;;23.17;63.93
64402;BME280;50724;42.376;23.768;2023-06-22T14:54:15;93573.63;;;23.19;64.39
64402;BME280;50724;42.376;23.768;2023-06-22T14:57:16;93569.22;;;23.13;64.34
64402;BME280;50724;42.376;23.768;2023-06-22T15:00:18;93571.06;;;23.13;64.90
64402;BME280;50724;42.376;23.768;2023-06-22T15:03:19;93567.56;;;23.01;64.46
64402;BME280;50724;42.376;23.768;2023-06-22T15:06:22;93567.81;;;22.99;65.45
64402;BME280;50724;42.376;23.768;2023-06-22T15:09:22;93572.22;;;23.05;65.06
64402;BME280;50724;42.376;23.768;2023-06-22T15:12:23;93567.09;;;22.92;65.54
64402;BME280;50724;42.376;23.768;2023-06-22T15:15:32;93570.78;;;22.80;65.42
64402;BME280;50724;42.376;23.768;2023-06-22T15:18:35;93563.63;;;22.92;65.78
64402;BME280;50724;42.376;23.768;2023-06-22T15:21:36;93560.69;;;22.93;65.74
64402;BME280;50724;42.376;23.768;2023-06-22T15:24:36;93560.69;;;22.82;66.85
64402;BME280;50724;42.376;23.768;2023-06-22T15:27:37;93559.66;;;22.83;66.39
64402;BME280;50724;42.376;23.768;2023-06-22T15:30:38;93547.94;;;22.84;66.51
64402;BME280;50724;42.376;23.768;2023-06-22T15:33:38;93540.97;;;22.83;65.70
64402;BME280;50724;42.376;23.768;2023-06-22T15:36:39;93540.97;;;22.71;66.10
64402;BME280;50724;42.376;23.768;2023-06-22T15:39:39;93536.44;;;22.72;66.97
64402;BME280;50724;42.376;23.768;2023-06-22T15:42:40;93536.09;;;22.80;66.46
64402;BME280;50724;42.376;23.768;2023-06-22T15:45:40;93539.84;;;22.90;66.89
64402;BME280;50724;42.376;23.768;2023-06-22T15:48:41;93536.72;;;23.16;65.50
64402;BME280;50724;42.376;23.768;2023-06-22T15:51:41;93536.97;;;23.61;64.15